createdAt,value
2022-11-12T00:00:55.460Z,4.99
2022-11-12T00:03:22.241Z,4.99
2022-11-12T00:05:50.896Z,4.99
2022-11-12T00:08:18.302Z,4.89
2022-11-12T00:10:46.072Z,4.92
2022-11-12T00:13:13.680Z,4.77
2022-11-12T00:15:40.741Z,4.67
2022-11-12T00:18:08.663Z,4.60
2022-11-12T00:20:35.997Z,4.63
2022-11-12T00:23:03.699Z,4.72
2022-11-12T00:25:31.159Z,4.48
2022-11-12T00:28:05.682Z,4.51
2022-11-12T00:30:32.747Z,4.59
2022-11-12T00:33:03.832Z,4.61
2022-11-12T00:35:33.868Z,4.65
2022-11-12T00:38:01.770Z,4.68
2022-11-12T00:40:28.926Z,4.76
2022-11-12T00:42:55.697Z,4.61
2022-11-12T00:45:23.116Z,4.54
2022-11-12T00:47:49.820Z,4.47
2022-11-12T00:50:16.877Z,4.45
2022-11-12T00:52:43.758Z,4.41
2022-11-12T00:55:11.074Z,4.33
2022-11-12T00:57:38.016Z,4.30
2022-11-12T01:00:07.530Z,4.41
2022-11-12T01:02:42.330Z,4.43
2022-11-12T01:05:10.488Z,4.36
2022-11-12T01:07:38.335Z,4.26
2022-11-12T01:10:05.623Z,4.29
2022-11-12T01:12:32.808Z,4.14
2022-11-12T01:14:59.685Z,4.35
2022-11-12T01:17:26.415Z,4.37
2022-11-12T01:19:53.278Z,4.29
2022-11-12T01:22:20.656Z,4.21
2022-11-12T01:24:47.346Z,4.19
2022-11-12T01:27:14.609Z,4.21
2022-11-12T01:29:41.634Z,4.01
2022-11-12T01:32:08.727Z,4.18
2022-11-12T01:34:35.730Z,4.17
2022-11-12T01:37:02.360Z,4.02
2022-11-12T01:39:30.373Z,4.06
2022-11-12T01:41:57.520Z,4.04
2022-11-12T01:44:27.230Z,4.08
2022-11-12T01:47:41.496Z,4.15
2022-11-12T01:50:18.391Z,4.15
2022-11-12T01:52:55.152Z,3.96
2022-11-12T01:55:28.787Z,4.02
2022-11-12T01:58:05.315Z,3.88
2022-11-12T02:00:32.412Z,3.96
2022-11-12T02:03:01.378Z,4.02
2022-11-12T02:05:30.290Z,4.18
2022-11-12T02:07:58.270Z,3.93
2022-11-12T02:10:25.694Z,3.87
2022-11-12T02:13:12.012Z,3.84
2022-11-12T02:15:39.684Z,3.83
2022-11-12T02:18:07.084Z,3.80
2022-11-12T02:20:35.560Z,3.76
2022-11-12T02:23:02.850Z,3.76
2022-11-12T02:25:29.662Z,3.76
2022-11-12T02:27:57.169Z,3.77
2022-11-12T02:30:35.682Z,3.77
2022-11-12T02:33:02.576Z,3.83
2022-11-12T02:35:29.755Z,3.72
2022-11-12T02:37:56.924Z,3.68
2022-11-12T02:40:23.867Z,3.68
2022-11-12T02:42:50.625Z,3.72
2022-11-12T02:45:17.881Z,3.74
2022-11-12T02:47:44.690Z,3.83
2022-11-12T02:50:11.976Z,3.76
2022-11-12T02:52:40.575Z,3.73
2022-11-12T02:55:08.779Z,3.63
2022-11-12T02:57:36.045Z,3.63
2022-11-12T03:00:10.959Z,3.61
2022-11-12T03:02:43.487Z,3.59
2022-11-12T03:05:11.325Z,3.60
2022-11-12T03:07:38.805Z,3.48
2022-11-12T03:10:06.682Z,3.35
2022-11-12T03:12:33.944Z,3.43
2022-11-12T03:15:00.937Z,3.37
2022-11-12T03:17:27.662Z,3.36
2022-11-12T03:19:54.383Z,3.35
2022-11-12T03:22:21.054Z,3.27
2022-11-12T03:24:47.903Z,3.32
2022-11-12T03:27:14.662Z,3.28
2022-11-12T03:29:41.416Z,3.26
2022-11-12T03:32:08.034Z,3.22
2022-11-12T03:34:34.762Z,3.24
2022-11-12T03:37:01.526Z,3.17
2022-11-12T03:39:28.218Z,3.13
2022-11-12T03:41:54.952Z,3.13
2022-11-12T03:44:21.665Z,3.22
2022-11-12T03:46:48.326Z,3.23
2022-11-12T03:49:15.102Z,2.95
2022-11-12T03:51:41.924Z,3.09
2022-11-12T03:54:08.778Z,3.08
2022-11-12T03:56:35.544Z,3.06
2022-11-12T03:59:02.202Z,3.12
2022-11-12T04:01:29.231Z,3.26
2022-11-12T04:03:56.547Z,3.29
2022-11-12T04:06:42.754Z,3.25
2022-11-12T04:09:09.563Z,3.31
2022-11-12T04:11:36.370Z,3.31
2022-11-12T04:14:03.232Z,3.32
2022-11-12T04:16:48.611Z,3.39
2022-11-12T04:19:34.053Z,3.44
2022-11-12T04:22:09.071Z,3.47
2022-11-12T04:24:56.084Z,3.45
2022-11-12T04:27:27.923Z,3.51
2022-11-12T04:30:13.147Z,3.55
2022-11-12T04:32:50.019Z,3.52
2022-11-12T04:35:17.290Z,3.45
2022-11-12T04:37:46.920Z,3.35
2022-11-12T04:40:40.452Z,3.49
2022-11-12T04:43:28.837Z,3.22
2022-11-12T04:45:56.266Z,3.30
2022-11-12T04:48:24.081Z,3.34
2022-11-12T04:50:55.030Z,3.46
2022-11-12T04:53:21.915Z,3.46
2022-11-12T04:55:54.396Z,3.46
2022-11-12T04:58:21.848Z,3.32
2022-11-12T05:00:49.537Z,3.39
2022-11-12T05:03:17.469Z,3.42
2022-11-12T05:05:44.299Z,3.38
2022-11-12T05:08:11.869Z,3.47
2022-11-12T05:10:39.123Z,3.36
2022-11-12T05:13:05.936Z,3.45
2022-11-12T05:15:34.652Z,3.48
2022-11-12T05:18:01.418Z,3.58
2022-11-12T05:20:29.117Z,3.54
2022-11-12T05:23:06.420Z,3.48
2022-11-12T05:25:35.614Z,3.34
2022-11-12T05:28:02.508Z,3.51
2022-11-12T05:30:29.612Z,3.38
2022-11-12T05:32:56.821Z,3.38
2022-11-12T05:35:23.620Z,3.35
2022-11-12T05:37:50.474Z,3.33
2022-11-12T05:40:19.055Z,3.40
2022-11-12T05:42:46.094Z,3.46
2022-11-12T05:45:12.913Z,3.42
2022-11-12T05:47:39.597Z,3.41
2022-11-12T05:50:07.427Z,3.44
2022-11-12T05:52:34.587Z,3.51
2022-11-12T05:55:01.572Z,3.39
2022-11-12T05:57:28.377Z,3.39
2022-11-12T05:59:55.038Z,3.38
2022-11-12T06:02:22.536Z,3.53
2022-11-12T06:04:49.276Z,3.50
2022-11-12T06:07:16.031Z,3.49
2022-11-12T06:09:43.006Z,3.51
2022-11-12T06:12:10.732Z,3.48
2022-11-12T06:14:38.280Z,3.42
2022-11-12T06:17:05.506Z,3.39
2022-11-12T06:19:32.331Z,3.44
2022-11-12T06:21:59.134Z,3.58
2022-11-12T06:24:32.115Z,3.43
2022-11-12T06:27:01.849Z,3.46
2022-11-12T06:29:30.333Z,3.42
2022-11-12T06:31:57.439Z,3.39
2022-11-12T06:34:24.695Z,3.39
2022-11-12T06:36:52.478Z,3.50
2022-11-12T06:39:19.611Z,3.49
2022-11-12T06:41:46.431Z,3.32
2022-11-12T06:44:17.755Z,3.22
2022-11-12T06:46:47.724Z,3.30
2022-11-12T06:49:14.427Z,3.26
2022-11-12T06:51:41.724Z,3.34
2022-11-12T06:54:08.412Z,3.50
2022-11-12T06:56:35.162Z,3.59
2022-11-12T06:59:02.082Z,3.69
2022-11-12T07:01:29.640Z,3.62
2022-11-12T07:03:56.379Z,3.72
2022-11-12T07:06:23.055Z,3.72
2022-11-12T07:08:51.304Z,3.79
2022-11-12T07:11:19.518Z,3.82
2022-11-12T07:13:47.796Z,3.81
2022-11-12T07:16:19.149Z,3.84
2022-11-12T07:18:47.010Z,3.80
2022-11-12T07:21:15.688Z,3.65
2022-11-12T07:23:42.659Z,3.51
2022-11-12T07:26:21.468Z,3.67
2022-11-12T07:28:50.655Z,3.75
2022-11-12T07:31:19.002Z,3.79
2022-11-12T07:33:46.553Z,3.90
2022-11-12T07:36:15.258Z,3.94
2022-11-12T07:38:43.354Z,3.96
2022-11-12T07:41:24.343Z,3.99
2022-11-12T07:43:53.472Z,4.15
2022-11-12T07:46:23.176Z,4.12
2022-11-12T07:48:50.124Z,4.12
2022-11-12T07:51:22.683Z,4.05
2022-11-12T07:53:53.763Z,4.03
2022-11-12T07:56:26.233Z,3.96
2022-11-12T07:58:53.291Z,4.01
2022-11-12T08:01:30.622Z,4.14
2022-11-12T08:03:58.568Z,3.89
2022-11-12T08:06:25.921Z,4.03
2022-11-12T08:08:53.631Z,4.15
2022-11-12T08:11:20.665Z,4.11
2022-11-12T08:13:47.509Z,4.03
2022-11-12T08:16:14.356Z,4.17
2022-11-12T08:18:41.015Z,3.99
2022-11-12T08:21:09.560Z,4.21
2022-11-12T08:23:36.215Z,4.27
2022-11-12T08:26:05.429Z,4.33
2022-11-12T08:28:34.350Z,4.32
2022-11-12T08:31:11.254Z,4.14
2022-11-12T08:33:38.312Z,4.27
2022-11-12T08:36:06.350Z,4.40
2022-11-12T08:38:33.337Z,4.43
2022-11-12T08:41:01.662Z,4.55
2022-11-12T08:43:28.429Z,4.61
2022-11-12T08:45:55.136Z,4.62
2022-11-12T08:48:21.915Z,4.47
2022-11-12T08:50:48.582Z,4.41
2022-11-12T08:53:15.502Z,4.58
2022-11-12T08:55:42.396Z,4.61
2022-11-12T08:58:10.653Z,4.70
2022-11-12T09:00:43.503Z,4.81
2022-11-12T09:03:18.762Z,4.99
2022-11-12T09:05:45.781Z,5.04
2022-11-12T09:08:17.853Z,5.19
2022-11-12T09:10:45.085Z,5.09
2022-11-12T09:13:12.081Z,5.12
2022-11-12T09:15:39.051Z,5.10
2022-11-12T09:18:09.048Z,5.18
2022-11-12T09:20:35.733Z,5.21
2022-11-12T09:23:05.794Z,5.36
2022-11-12T09:25:32.518Z,5.33
2022-11-12T09:28:06.442Z,5.47
2022-11-12T09:30:33.208Z,5.53
2022-11-12T09:32:59.913Z,5.57
2022-11-12T09:35:26.747Z,5.63
2022-11-12T09:37:53.556Z,5.82
2022-11-12T09:40:20.665Z,5.87
2022-11-12T09:42:53.028Z,5.90
2022-11-12T09:45:30.228Z,5.91
2022-11-12T09:48:02.624Z,5.98
2022-11-12T09:50:34.604Z,6.08
2022-11-12T09:53:15.786Z,6.17
2022-11-12T09:55:44.509Z,6.43
2022-11-12T09:58:16.293Z,6.40
2022-11-12T10:00:53.003Z,6.49
2022-11-12T10:03:44.463Z,6.53
2022-11-12T10:06:19.088Z,6.67
2022-11-12T10:09:19.605Z,6.72
2022-11-12T10:12:34.187Z,6.90
2022-11-12T10:15:39.437Z,6.94
2022-11-12T10:18:30.472Z,7.11
2022-11-12T10:21:48.511Z,7.23
2022-11-12T10:24:15.325Z,7.33
2022-11-12T10:26:42.193Z,7.40
2022-11-12T10:29:18.351Z,7.63
2022-11-12T10:31:45.456Z,7.64
2022-11-12T10:34:22.999Z,7.79
2022-11-12T10:37:01.213Z,7.79
2022-11-12T10:39:39.106Z,7.89
2022-11-12T10:42:09.129Z,7.94
2022-11-12T10:44:36.645Z,7.96
2022-11-12T10:47:26.296Z,8.10
2022-11-12T10:50:16.931Z,8.12
2022-11-12T10:53:03.674Z,8.20
2022-11-12T10:55:37.007Z,8.24
2022-11-12T10:58:30.409Z,8.25
2022-11-12T11:01:14.852Z,8.34
2022-11-12T11:03:54.695Z,8.38
2022-11-12T11:06:23.986Z,8.41
2022-11-12T11:08:53.028Z,8.41
2022-11-12T11:11:24.722Z,8.50
2022-11-12T11:13:55.758Z,8.58
2022-11-12T11:16:27.881Z,8.72
2022-11-12T11:19:00.618Z,8.81
2022-11-12T11:22:04.525Z,8.88
2022-11-12T11:24:41.181Z,9.01
2022-11-12T11:27:49.557Z,8.98
2022-11-12T11:30:21.342Z,9.17
2022-11-12T11:33:20.486Z,9.23
2022-11-12T11:36:09.765Z,9.31
2022-11-12T11:38:42.658Z,9.36
2022-11-12T11:41:31.091Z,9.43
2022-11-12T11:44:07.762Z,9.58
2022-11-12T11:46:51.662Z,9.58
2022-11-12T11:49:47.493Z,9.68
2022-11-12T11:52:48.405Z,9.69
2022-11-12T11:55:36.849Z,9.69
2022-11-12T11:58:14.076Z,9.74
2022-11-12T12:00:46.852Z,9.79
2022-11-12T12:03:42.748Z,9.89
2022-11-12T12:06:28.581Z,9.95
2022-11-12T12:09:15.795Z,9.97
2022-11-12T12:12:21.902Z,10.06
2022-11-12T12:15:03.775Z,10.14
2022-11-12T12:17:59.046Z,10.15
2022-11-12T12:20:52.705Z,10.15
2022-11-12T12:23:38.464Z,10.22
2022-11-12T12:26:11.981Z,10.21
2022-11-12T12:28:56.054Z,10.19
2022-11-12T12:31:33.156Z,10.18
2022-11-12T12:34:03.516Z,10.23
2022-11-12T12:36:39.370Z,10.19
2022-11-12T12:39:18.619Z,10.30
2022-11-12T12:42:17.702Z,10.37
2022-11-12T12:45:05.182Z,10.36
2022-11-12T12:47:37.311Z,10.40
2022-11-12T12:50:08.337Z,10.47
2022-11-12T12:53:04.077Z,10.49
2022-11-12T12:55:39.753Z,10.55
2022-11-12T12:58:36.234Z,10.57
2022-11-12T13:01:13.045Z,10.63
2022-11-12T13:04:12.347Z,10.66
2022-11-12T13:06:41.373Z,10.69
2022-11-12T13:09:24.363Z,10.76
2022-11-12T13:12:24.829Z,10.77
2022-11-12T13:14:54.681Z,10.83
2022-11-12T13:17:47.460Z,10.83
2022-11-12T13:20:33.224Z,10.85
2022-11-12T13:22:59.923Z,10.83
2022-11-12T13:25:31.473Z,10.85
2022-11-12T13:28:06.497Z,10.84
2022-11-12T13:30:57.178Z,10.88
2022-11-12T13:33:31.961Z,10.85
2022-11-12T13:36:25.968Z,10.88
2022-11-12T13:38:56.485Z,10.90
2022-11-12T13:41:45.269Z,10.90
2022-11-12T13:44:16.139Z,10.94
2022-11-12T13:46:43.057Z,10.87
2022-11-12T13:49:15.273Z,10.84
2022-11-12T13:51:47.058Z,10.85
2022-11-12T13:54:34.646Z,10.78
2022-11-12T13:57:30.744Z,10.78
2022-11-12T14:00:23.916Z,10.80
2022-11-12T14:03:06.965Z,10.80
2022-11-12T14:05:35.129Z,10.80
2022-11-12T14:08:21.724Z,10.78
2022-11-12T14:11:21.267Z,10.83
2022-11-12T14:14:12.517Z,10.75
2022-11-12T14:17:02.603Z,10.81
2022-11-12T14:19:55.362Z,10.88
2022-11-12T14:22:22.853Z,10.86
2022-11-12T14:24:54.822Z,10.87
2022-11-12T14:27:39.652Z,10.82
2022-11-12T14:30:17.660Z,10.77
2022-11-12T14:32:46.574Z,10.78
2022-11-12T14:35:32.203Z,10.80
2022-11-12T14:38:27.346Z,10.77
2022-11-12T14:40:56.088Z,10.74
2022-11-12T14:43:54.933Z,10.67
2022-11-12T14:46:40.105Z,10.65
2022-11-12T14:49:23.277Z,10.59
2022-11-12T14:51:55.066Z,10.55
2022-11-12T14:54:50.672Z,10.51
2022-11-12T14:57:21.583Z,10.47
2022-11-12T14:59:48.665Z,10.42
2022-11-12T15:02:32.529Z,10.38
2022-11-12T15:05:19.159Z,10.34
2022-11-12T15:08:00.927Z,10.32
2022-11-12T15:10:34.962Z,10.26
2022-11-12T15:13:13.966Z,10.16
2022-11-12T15:15:51.541Z,10.08
2022-11-12T15:18:20.968Z,10.01
2022-11-12T15:21:18.649Z,9.96
2022-11-12T15:24:02.119Z,9.90
2022-11-12T15:26:48.066Z,9.87
2022-11-12T15:29:32.805Z,9.79
2022-11-12T15:32:14.051Z,9.78
2022-11-12T15:34:46.419Z,9.68
2022-11-12T15:37:25.628Z,9.49
2022-11-12T15:39:55.765Z,9.45
2022-11-12T15:42:34.383Z,9.42
2022-11-12T15:45:02.911Z,9.39
2022-11-12T15:47:29.678Z,9.24
2022-11-12T15:49:58.942Z,9.24
2022-11-12T15:52:26.492Z,9.18
2022-11-12T15:54:53.635Z,9.12
2022-11-12T15:57:27.959Z,9.07
2022-11-12T16:00:04.532Z,9.04
2022-11-12T16:02:34.761Z,9.00
2022-11-12T16:05:01.483Z,8.90
2022-11-12T16:07:28.244Z,8.81
2022-11-12T16:09:55.146Z,8.72
2022-11-12T16:12:22.068Z,8.55
2022-11-12T16:14:48.881Z,8.59
2022-11-12T16:17:16.752Z,8.51
2022-11-12T16:19:43.445Z,8.50
2022-11-12T16:22:12.975Z,8.41
2022-11-12T16:24:40.748Z,8.35
2022-11-12T16:27:10.867Z,8.29
2022-11-12T16:29:37.800Z,8.29
2022-11-12T16:32:04.899Z,8.12
2022-11-12T16:34:31.638Z,8.10
2022-11-12T16:36:58.849Z,8.06
2022-11-12T16:39:25.660Z,8.01
2022-11-12T16:41:52.712Z,7.99
2022-11-12T16:44:19.579Z,7.95
2022-11-12T16:46:46.333Z,7.87
2022-11-12T16:49:14.292Z,7.80
2022-11-12T16:51:42.097Z,7.76
2022-11-12T16:54:09.227Z,7.75
2022-11-12T16:56:36.770Z,7.78
2022-11-12T16:59:04.526Z,7.70
2022-11-12T17:01:32.915Z,7.64
2022-11-12T17:03:59.713Z,7.58
2022-11-12T17:06:36.931Z,7.53
2022-11-12T17:09:08.814Z,7.47
2022-11-12T17:11:36.160Z,7.48
2022-11-12T17:14:04.167Z,7.37
2022-11-12T17:16:31.560Z,7.32
2022-11-12T17:18:59.441Z,7.37
2022-11-12T17:21:26.131Z,7.30
2022-11-12T17:23:55.025Z,7.28
2022-11-12T17:26:22.313Z,7.23
2022-11-12T17:28:51.622Z,7.18
2022-11-12T17:31:23.788Z,7.09
2022-11-12T17:33:52.778Z,7.09
2022-11-12T17:36:25.671Z,6.96
2022-11-12T17:39:00.472Z,6.88
2022-11-12T17:41:31.207Z,6.89
2022-11-12T17:43:59.925Z,6.89
2022-11-12T17:46:27.336Z,6.82
2022-11-12T17:48:55.036Z,6.76
2022-11-12T17:51:25.513Z,6.78
2022-11-12T17:53:52.767Z,6.77
2022-11-12T17:56:23.187Z,6.61
2022-11-12T17:58:51.024Z,6.76
2022-11-12T18:01:21.336Z,6.80
2022-11-12T18:03:50.476Z,6.73
2022-11-12T18:06:23.522Z,6.70
2022-11-12T18:08:56.008Z,6.63
2022-11-12T18:11:24.013Z,6.67
2022-11-12T18:13:51.021Z,6.61
2022-11-12T18:16:26.065Z,6.47
2022-11-12T18:18:57.430Z,6.42
2022-11-12T18:21:25.427Z,6.46
2022-11-12T18:23:53.021Z,6.40
2022-11-12T18:26:21.678Z,6.28
2022-11-12T18:28:56.203Z,6.24
2022-11-12T18:31:25.202Z,6.30
2022-11-12T18:33:52.561Z,6.32
2022-11-12T18:36:24.392Z,6.34
2022-11-12T18:38:52.904Z,6.31
2022-11-12T18:41:25.859Z,6.23
2022-11-12T18:43:53.990Z,6.11
2022-11-12T18:46:21.059Z,6.02
2022-11-12T18:48:47.835Z,6.04
2022-11-12T18:51:16.474Z,6.08
2022-11-12T18:53:44.082Z,6.09
2022-11-12T18:56:13.426Z,6.08
2022-11-12T18:58:40.371Z,6.01
2022-11-12T19:01:12.674Z,6.07
2022-11-12T19:03:42.713Z,5.96
2022-11-12T19:06:13.211Z,5.84
2022-11-12T19:08:40.512Z,5.82
2022-11-12T19:11:09.911Z,5.80
2022-11-12T19:13:37.536Z,5.84
2022-11-12T19:16:24.020Z,5.81
2022-11-12T19:18:51.613Z,5.71
2022-11-12T19:21:22.523Z,5.75
2022-11-12T19:23:53.735Z,5.84
2022-11-12T19:26:22.244Z,5.70
2022-11-12T19:28:49.520Z,5.76
2022-11-12T19:31:19.880Z,5.72
2022-11-12T19:33:47.633Z,5.66
2022-11-12T19:36:16.171Z,5.61
2022-11-12T19:38:42.883Z,5.57
2022-11-12T19:41:17.787Z,5.62
2022-11-12T19:43:46.058Z,5.61
2022-11-12T19:46:12.797Z,5.64
2022-11-12T19:48:39.702Z,5.67
2022-11-12T19:51:08.813Z,5.71
2022-11-12T19:53:44.913Z,5.70
2022-11-12T19:56:13.847Z,5.43
2022-11-12T19:58:44.974Z,5.58
2022-11-12T20:01:14.579Z,5.49
2022-11-12T20:03:42.301Z,5.46
2022-11-12T20:06:18.303Z,5.45
2022-11-12T20:08:45.575Z,5.57
2022-11-12T20:11:13.307Z,5.56
2022-11-12T20:13:40.191Z,5.47
2022-11-12T20:16:13.357Z,5.51
2022-11-12T20:18:40.363Z,5.52
2022-11-12T20:21:07.978Z,5.49
2022-11-12T20:23:35.451Z,5.46
2022-11-12T20:26:04.528Z,5.46
2022-11-12T20:28:33.632Z,5.45
2022-11-12T20:31:05.581Z,5.43
2022-11-12T20:33:36.730Z,5.44
2022-11-12T20:36:15.657Z,5.40
2022-11-12T20:38:43.811Z,5.43
2022-11-12T20:41:14.614Z,5.40
2022-11-12T20:43:41.486Z,5.42
2022-11-12T20:46:08.213Z,5.37
2022-11-12T20:48:38.915Z,5.34
2022-11-12T20:51:25.282Z,5.40
2022-11-12T20:54:00.025Z,5.44
2022-11-12T20:56:29.519Z,5.46
2022-11-12T20:58:56.676Z,5.32
2022-11-12T21:01:24.593Z,5.16
2022-11-12T21:03:51.752Z,5.20
2022-11-12T21:06:21.573Z,5.42
2022-11-12T21:08:48.317Z,5.32
2022-11-12T21:11:16.970Z,5.17
2022-11-12T21:13:44.286Z,5.22
2022-11-12T21:16:12.087Z,5.28
2022-11-12T21:18:39.693Z,5.42
2022-11-12T21:21:18.489Z,5.15
2022-11-12T21:23:45.642Z,4.99
2022-11-12T21:26:17.773Z,5.02
2022-11-12T21:28:46.116Z,5.14
2022-11-12T21:31:35.001Z,5.13
2022-11-12T21:34:04.642Z,5.17
2022-11-12T21:36:34.502Z,5.18
2022-11-12T21:39:01.914Z,5.11
2022-11-12T21:41:30.367Z,5.24
2022-11-12T21:43:57.269Z,5.07
2022-11-12T21:46:30.242Z,5.28
2022-11-12T21:48:57.464Z,5.17
2022-11-12T21:51:27.155Z,5.22
2022-11-12T21:53:58.699Z,5.21
2022-11-12T21:56:26.250Z,5.32
2022-11-12T21:58:54.335Z,5.19
2022-11-12T22:01:23.234Z,5.07
2022-11-12T22:03:51.582Z,5.02
2022-11-12T22:06:20.030Z,4.94
2022-11-12T22:08:46.850Z,5.00
2022-11-12T22:11:15.633Z,4.95
2022-11-12T22:13:42.696Z,5.16
2022-11-12T22:16:20.792Z,5.12
2022-11-12T22:18:50.342Z,5.14
2022-11-12T22:21:23.156Z,5.22
2022-11-12T22:23:49.966Z,5.28
2022-11-12T22:26:21.056Z,5.24
2022-11-12T22:28:48.406Z,5.17
2022-11-12T22:31:17.828Z,5.22
2022-11-12T22:33:44.654Z,5.19
2022-11-12T22:36:13.736Z,5.25
2022-11-12T22:38:42.853Z,5.26
2022-11-12T22:41:14.917Z,5.20
2022-11-12T22:43:41.876Z,5.23
2022-11-12T22:46:13.646Z,5.16
2022-11-12T22:48:40.970Z,5.23
2022-11-12T22:51:14.651Z,5.29
2022-11-12T22:53:41.422Z,5.24
2022-11-12T22:56:09.944Z,5.17
2022-11-12T22:58:37.989Z,5.16
2022-11-12T23:01:06.220Z,5.27
2022-11-12T23:03:34.198Z,5.20
2022-11-12T23:06:04.502Z,5.16
2022-11-12T23:08:31.701Z,5.05
2022-11-12T23:11:03.389Z,4.96
2022-11-12T23:13:30.033Z,5.05
2022-11-12T23:15:56.759Z,4.67
2022-11-12T23:18:23.539Z,4.76
2022-11-12T23:20:50.447Z,4.92
2022-11-12T23:23:17.330Z,4.88
2022-11-12T23:25:44.380Z,4.79
2022-11-12T23:28:11.117Z,4.84
2022-11-12T23:30:38.039Z,4.76
2022-11-12T23:33:04.714Z,4.84
2022-11-12T23:35:31.571Z,4.84
2022-11-12T23:37:58.186Z,4.83
2022-11-12T23:40:30.644Z,4.89
2022-11-12T23:42:57.715Z,4.98
2022-11-12T23:45:24.470Z,4.81
2022-11-12T23:47:51.259Z,4.81
2022-11-12T23:50:17.944Z,4.78
2022-11-12T23:52:44.701Z,4.74
2022-11-12T23:55:11.625Z,4.89
2022-11-12T23:57:38.357Z,4.87
